createdAt,value
2017-07-06T00:00:35.327Z,2.90
2017-07-06T00:03:02.952Z,3.17
2017-07-06T00:05:30.541Z,3.13
2017-07-06T00:07:58.119Z,2.73
2017-07-06T00:10:26.513Z,3.30
2017-07-06T00:12:54.120Z,3.43
2017-07-06T00:15:21.869Z,3.00
2017-07-06T00:17:49.538Z,4.27
2017-07-06T00:20:17.167Z,3.37
2017-07-06T00:22:45.533Z,3.10
2017-07-06T00:25:13.935Z,3.33
2017-07-06T00:27:41.524Z,3.23
2017-07-06T00:30:09.097Z,3.60
2017-07-06T00:32:37.307Z,3.57
2017-07-06T00:35:04.900Z,3.13
2017-07-06T00:37:32.480Z,3.33
2017-07-06T00:40:00.102Z,3.47
2017-07-06T00:42:27.685Z,2.67
2017-07-06T00:44:55.278Z,2.97
2017-07-06T00:47:22.921Z,3.53
2017-07-06T00:49:50.500Z,3.53
2017-07-06T00:52:18.076Z,3.70
2017-07-06T00:54:45.737Z,3.80
2017-07-06T00:57:13.326Z,3.53
2017-07-06T00:59:40.958Z,3.67
2017-07-06T01:02:08.580Z,3.50
2017-07-06T01:04:36.932Z,3.43
2017-07-06T01:07:05.291Z,3.40
2017-07-06T01:09:32.926Z,3.53
2017-07-06T01:12:00.529Z,3.70
2017-07-06T01:14:28.100Z,3.33
2017-07-06T01:16:55.728Z,3.63
2017-07-06T01:19:23.309Z,3.30
2017-07-06T01:21:50.887Z,3.83
2017-07-06T01:24:18.507Z,3.03
2017-07-06T01:26:46.869Z,3.90
2017-07-06T01:29:15.219Z,4.20
2017-07-06T01:31:42.849Z,3.80
2017-07-06T01:34:10.428Z,3.77
2017-07-06T01:36:38.784Z,4.40
2017-07-06T01:39:07.168Z,3.87
2017-07-06T01:41:34.752Z,4.00
2017-07-06T01:44:02.335Z,4.93
2017-07-06T01:46:30.715Z,4.20
2017-07-06T01:48:58.288Z,4.10
2017-07-06T01:51:25.882Z,3.97
2017-07-06T01:53:54.286Z,3.80
2017-07-06T01:56:21.864Z,4.00
2017-07-06T01:58:49.466Z,4.70
2017-07-06T02:01:17.089Z,4.97
2017-07-06T02:03:44.672Z,4.53
2017-07-06T02:06:12.242Z,4.90
2017-07-06T02:08:39.871Z,5.00
2017-07-06T02:11:07.471Z,4.43
2017-07-06T02:13:35.814Z,4.73
2017-07-06T02:16:04.207Z,5.47
2017-07-06T02:18:31.799Z,4.90
2017-07-06T02:20:59.371Z,5.50
2017-07-06T02:23:27.774Z,5.63
2017-07-06T02:25:55.357Z,4.60
2017-07-06T02:28:22.948Z,5.00
2017-07-06T02:30:50.576Z,5.27
2017-07-06T02:33:18.177Z,6.60
2017-07-06T02:35:45.747Z,7.93
2017-07-06T02:38:13.377Z,7.70
2017-07-06T02:40:40.944Z,8.60
2017-07-06T02:43:09.283Z,9.90
2017-07-06T02:45:36.906Z,11.63
2017-07-06T02:48:04.492Z,12.93
2017-07-06T02:50:32.832Z,12.57
2017-07-06T02:53:00.453Z,13.47
2017-07-06T02:55:28.029Z,14.03
2017-07-06T02:57:55.608Z,16.17
2017-07-06T03:00:23.259Z,15.37
2017-07-06T03:02:50.843Z,16.93
2017-07-06T03:05:18.445Z,17.87
2017-07-06T03:07:46.094Z,16.40
2017-07-06T03:10:13.679Z,19.10
2017-07-06T03:12:41.265Z,18.27
2017-07-06T03:15:09.677Z,19.13
2017-07-06T03:17:37.247Z,18.67
2017-07-06T03:20:04.841Z,16.67
2017-07-06T03:22:32.462Z,17.33
2017-07-06T03:25:00.798Z,15.43
2017-07-06T03:27:28.392Z,11.77
2017-07-06T03:29:56.046Z,10.47
2017-07-06T03:32:23.627Z,9.73
2017-07-06T03:34:51.216Z,10.80
2017-07-06T03:37:18.842Z,8.73
2017-07-06T03:39:47.176Z,9.07
2017-07-06T03:42:14.760Z,8.03
2017-07-06T03:44:42.409Z,7.78
2017-07-06T03:47:09.994Z,7.30
2017-07-06T03:49:37.575Z,7.77
2017-07-06T03:52:05.986Z,7.17
2017-07-06T03:54:33.559Z,6.67
2017-07-06T03:57:01.136Z,5.67
2017-07-06T03:59:29.524Z,5.93
2017-07-06T04:01:57.095Z,7.23
2017-07-06T04:04:24.684Z,6.00
2017-07-06T04:06:52.303Z,9.47
2017-07-06T04:09:19.874Z,6.80
2017-07-06T04:11:47.461Z,7.27
2017-07-06T04:14:15.097Z,5.97
2017-07-06T04:16:44.067Z,7.30
2017-07-06T04:19:11.724Z,12.40
2017-07-06T04:21:39.362Z,6.00
2017-07-06T04:24:06.963Z,5.03
2017-07-06T04:26:34.553Z,5.80
2017-07-06T04:29:02.190Z,5.50
2017-07-06T04:31:29.769Z,4.80
2017-07-06T04:33:57.338Z,5.00
2017-07-06T04:36:25.755Z,5.40
2017-07-06T04:38:53.341Z,5.80
2017-07-06T04:41:21.693Z,5.23
2017-07-06T04:43:49.332Z,4.50
2017-07-06T04:46:16.912Z,3.67
2017-07-06T04:48:45.256Z,3.93
2017-07-06T04:51:12.905Z,3.80
2017-07-06T04:53:41.239Z,3.33
2017-07-06T04:56:08.824Z,3.40
2017-07-06T04:58:37.203Z,3.27
2017-07-06T05:01:04.790Z,2.80
2017-07-06T05:03:32.446Z,3.33
2017-07-06T05:06:00.081Z,3.10
2017-07-06T05:08:27.660Z,3.47
2017-07-06T05:10:56.087Z,2.97
2017-07-06T05:13:23.783Z,2.83
2017-07-06T05:15:51.387Z,3.20
2017-07-06T05:18:18.964Z,3.00
2017-07-06T05:20:47.368Z,4.50
2017-07-06T05:23:15.000Z,3.03
2017-07-06T05:25:42.886Z,2.70
2017-07-06T05:28:10.554Z,3.50
2017-07-06T05:30:38.277Z,3.60
2017-07-06T05:33:05.842Z,3.43
2017-07-06T05:35:33.458Z,3.30
2017-07-06T05:38:01.042Z,2.57
2017-07-06T05:40:29.397Z,3.03
2017-07-06T05:42:57.804Z,2.90
2017-07-06T05:45:25.376Z,3.60
2017-07-06T05:47:52.938Z,3.17
2017-07-06T05:50:20.577Z,3.20
2017-07-06T05:52:48.139Z,3.17
2017-07-06T05:55:16.485Z,3.50
2017-07-06T05:57:44.102Z,3.50
2017-07-06T06:00:11.683Z,3.47
2017-07-06T06:02:39.278Z,3.17
2017-07-06T06:05:06.894Z,2.40
2017-07-06T06:07:34.476Z,2.60
2017-07-06T06:10:02.039Z,5.57
2017-07-06T06:12:29.671Z,2.80
2017-07-06T06:14:57.240Z,3.30
2017-07-06T06:17:26.941Z,2.47
2017-07-06T06:19:55.422Z,2.30
2017-07-06T06:22:23.765Z,2.60
2017-07-06T06:24:51.349Z,2.90
2017-07-06T06:27:19.004Z,2.40
2017-07-06T06:29:46.571Z,2.37
2017-07-06T06:32:14.239Z,1.97
2017-07-06T06:34:41.865Z,2.50
2017-07-06T06:37:09.468Z,2.37
2017-07-06T06:39:37.030Z,2.30
2017-07-06T06:42:05.578Z,1.93
2017-07-06T06:44:33.169Z,7.40
2017-07-06T06:47:00.757Z,13.40
2017-07-06T06:49:28.366Z,3.60
2017-07-06T06:51:55.955Z,2.40
2017-07-06T06:54:23.545Z,2.83
2017-07-06T06:56:51.163Z,2.80
2017-07-06T06:59:18.749Z,2.93
2017-07-06T07:01:46.328Z,3.47
2017-07-06T07:04:13.969Z,2.10
2017-07-06T07:06:41.541Z,1.70
2017-07-06T07:09:09.117Z,2.47
2017-07-06T07:11:36.732Z,2.60
2017-07-06T07:14:04.322Z,6.63
2017-07-06T07:16:32.684Z,2.27
2017-07-06T07:19:00.311Z,2.93
2017-07-06T07:21:27.891Z,2.73
2017-07-06T07:23:56.233Z,3.00
2017-07-06T07:26:23.861Z,3.07
2017-07-06T07:28:51.426Z,2.90
2017-07-06T07:31:19.005Z,3.80
2017-07-06T07:33:46.698Z,6.87
2017-07-06T07:36:14.291Z,6.30
2017-07-06T07:38:41.872Z,2.50
2017-07-06T07:41:09.494Z,2.40
2017-07-06T07:43:37.075Z,3.50
2017-07-06T07:46:04.649Z,2.47
2017-07-06T07:48:33.079Z,2.47
2017-07-06T07:51:00.618Z,2.80
2017-07-06T07:53:28.183Z,2.17
2017-07-06T07:55:55.820Z,2.80
2017-07-06T07:58:23.410Z,3.00
2017-07-06T08:00:50.983Z,3.00
2017-07-06T08:03:18.604Z,1.90
2017-07-06T08:05:46.181Z,2.60
2017-07-06T08:08:13.764Z,3.00
2017-07-06T08:10:42.172Z,2.67
2017-07-06T08:13:09.761Z,3.17
2017-07-06T08:15:38.108Z,3.37
2017-07-06T08:18:05.728Z,2.90
2017-07-06T08:20:33.315Z,2.50
2017-07-06T08:23:01.654Z,2.70
2017-07-06T08:25:29.271Z,2.30
2017-07-06T08:27:56.856Z,4.00
2017-07-06T08:30:24.440Z,1.73
2017-07-06T08:32:52.078Z,2.03
2017-07-06T08:35:19.656Z,2.10
2017-07-06T08:37:47.222Z,1.77
2017-07-06T08:40:14.862Z,2.00
2017-07-06T08:42:42.450Z,1.90
2017-07-06T08:45:10.050Z,2.10
2017-07-06T08:47:37.724Z,2.30
2017-07-06T08:50:06.076Z,2.13
2017-07-06T08:52:33.661Z,2.20
2017-07-06T08:55:01.319Z,1.90
2017-07-06T08:57:28.902Z,1.70
2017-07-06T08:59:56.498Z,2.43
2017-07-06T09:02:24.142Z,2.20
2017-07-06T09:04:51.722Z,2.03
2017-07-06T09:07:19.304Z,1.83
2017-07-06T09:09:47.693Z,1.53
2017-07-06T09:12:15.270Z,1.53
2017-07-06T09:14:42.849Z,1.70
2017-07-06T09:17:11.240Z,1.23
2017-07-06T09:19:38.855Z,1.67
2017-07-06T09:22:07.199Z,1.43
2017-07-06T09:24:34.825Z,1.23
2017-07-06T09:27:02.408Z,1.50
2017-07-06T09:29:30.738Z,1.50
2017-07-06T09:31:58.371Z,1.27
2017-07-06T09:34:25.933Z,1.07
2017-07-06T09:36:53.503Z,1.47
2017-07-06T09:39:21.897Z,1.30
2017-07-06T09:41:49.669Z,1.70
2017-07-06T09:44:17.549Z,2.70
2017-07-06T09:46:45.150Z,2.07
2017-07-06T09:49:12.757Z,3.10
2017-07-06T09:51:40.340Z,2.53
2017-07-06T09:54:08.012Z,1.70
2017-07-06T09:56:35.595Z,2.20
2017-07-06T09:59:03.162Z,1.57
2017-07-06T10:01:30.798Z,1.57
2017-07-06T10:03:58.386Z,0.90
2017-07-06T10:06:25.950Z,1.00
2017-07-06T10:08:54.323Z,1.10
2017-07-06T10:11:22.653Z,1.00
2017-07-06T10:13:50.245Z,0.90
2017-07-06T10:16:17.870Z,0.90
2017-07-06T10:18:46.208Z,0.90
2017-07-06T10:21:13.774Z,1.20
2017-07-06T10:23:42.164Z,1.40
2017-07-06T10:26:09.754Z,1.10
2017-07-06T10:28:38.097Z,1.13
2017-07-06T10:31:05.721Z,1.50
2017-07-06T10:33:33.309Z,1.07
2017-07-06T10:36:00.909Z,1.73
2017-07-06T10:38:28.522Z,1.40
2017-07-06T10:40:56.114Z,1.07
2017-07-06T10:43:23.691Z,1.10
2017-07-06T10:45:51.332Z,1.20
2017-07-06T10:48:18.916Z,1.17
2017-07-06T10:50:46.506Z,1.00
2017-07-06T10:53:14.878Z,1.37
2017-07-06T10:55:43.234Z,1.00
2017-07-06T10:58:11.571Z,1.43
2017-07-06T11:00:39.187Z,1.40
2017-07-06T11:03:06.761Z,1.10
2017-07-06T11:05:34.352Z,1.87
2017-07-06T11:08:02.009Z,1.23
2017-07-06T11:10:29.595Z,1.10
2017-07-06T11:12:57.175Z,1.10
2017-07-06T11:15:25.569Z,1.20
2017-07-06T11:17:53.162Z,1.13
2017-07-06T11:20:20.727Z,1.10
2017-07-06T11:22:49.111Z,0.90
2017-07-06T11:25:16.689Z,0.90
2017-07-06T11:27:44.282Z,1.00
2017-07-06T11:30:12.695Z,1.00
2017-07-06T11:32:40.262Z,1.10
2017-07-06T11:35:07.854Z,1.37
2017-07-06T11:37:35.536Z,1.13
2017-07-06T11:40:03.129Z,1.00
2017-07-06T11:42:30.706Z,1.10
2017-07-06T11:44:58.328Z,1.47
2017-07-06T11:47:25.919Z,1.63
2017-07-06T11:49:53.497Z,1.10
2017-07-06T11:52:21.875Z,1.33
2017-07-06T11:57:26.280Z,1.60
2017-07-06T11:59:53.869Z,1.70
2017-07-06T12:02:21.433Z,0.77
2017-07-06T12:04:49.044Z,0.70
2017-07-06T12:07:16.627Z,1.10
2017-07-06T12:09:44.972Z,1.00
2017-07-06T12:12:12.613Z,0.70
2017-07-06T12:14:40.175Z,0.80
2017-07-06T12:17:07.738Z,1.03
2017-07-06T12:19:36.120Z,0.70
2017-07-06T12:22:03.764Z,0.90
2017-07-06T12:24:31.355Z,0.80
2017-07-06T12:26:58.967Z,1.27
2017-07-06T12:29:26.557Z,1.27
2017-07-06T12:31:54.128Z,1.20
2017-07-06T12:34:21.743Z,1.10
2017-07-06T12:36:49.319Z,1.43
2017-07-06T12:39:16.891Z,1.23
2017-07-06T12:41:44.515Z,0.90
2017-07-06T12:44:12.105Z,1.23
2017-07-06T12:46:39.677Z,1.53
2017-07-06T12:49:08.050Z,2.40
2017-07-06T12:51:36.406Z,2.10
2017-07-06T12:54:04.738Z,1.23
2017-07-06T12:56:32.373Z,1.77
2017-07-06T12:58:59.934Z,1.60
2017-07-06T13:01:27.517Z,2.70
2017-07-06T13:03:56.166Z,1.40
2017-07-06T13:06:24.510Z,1.40
2017-07-06T13:08:52.088Z,1.10
2017-07-06T13:11:19.713Z,1.17
2017-07-06T13:13:47.302Z,1.30
2017-07-06T13:16:14.871Z,1.30
2017-07-06T13:18:42.486Z,1.17
2017-07-06T13:21:10.070Z,1.30
2017-07-06T13:23:37.630Z,1.33
2017-07-06T13:26:06.022Z,2.00
2017-07-06T13:28:33.611Z,1.53
2017-07-06T13:31:01.199Z,1.50
2017-07-06T13:33:28.807Z,1.47
2017-07-06T13:35:56.370Z,1.70
2017-07-06T13:38:23.948Z,1.27
2017-07-06T13:40:51.561Z,1.57
2017-07-06T13:43:19.904Z,1.30
2017-07-06T13:45:47.478Z,1.90
2017-07-06T13:48:15.849Z,1.87
2017-07-06T13:50:43.428Z,1.90
2017-07-06T13:53:11.013Z,1.80
2017-07-06T13:55:39.395Z,1.83
2017-07-06T13:58:06.960Z,1.73
2017-07-06T14:00:34.545Z,1.97
2017-07-06T14:03:02.177Z,1.73
2017-07-06T14:05:29.748Z,1.97
2017-07-06T14:07:58.335Z,2.40
2017-07-06T14:10:26.721Z,1.90
2017-07-06T14:12:54.300Z,2.70
2017-07-06T14:15:21.880Z,2.80
2017-07-06T14:17:49.515Z,1.90
2017-07-06T14:20:17.091Z,1.67
2017-07-06T14:22:44.669Z,2.00
2017-07-06T14:25:12.304Z,1.63
2017-07-06T14:27:39.907Z,2.00
2017-07-06T14:30:07.489Z,2.30
2017-07-06T14:32:35.120Z,3.80
2017-07-06T14:35:02.703Z,2.10
2017-07-06T14:37:30.292Z,2.07
2017-07-06T14:39:57.948Z,2.50
2017-07-06T14:42:25.551Z,2.70
2017-07-06T14:44:53.892Z,2.20
2017-07-06T14:47:21.497Z,2.00
2017-07-06T14:49:49.083Z,2.13
2017-07-06T14:52:16.645Z,2.03
2017-07-06T14:54:44.990Z,2.30
2017-07-06T14:57:12.591Z,2.37
2017-07-06T14:59:40.873Z,2.30
2017-07-06T15:02:08.501Z,1.57
2017-07-06T15:04:36.073Z,1.77
2017-07-06T15:07:03.717Z,1.77
2017-07-06T15:09:31.353Z,2.10
2017-07-06T15:11:58.932Z,2.00
2017-07-06T15:14:26.522Z,1.70
2017-07-06T15:16:54.180Z,1.80
2017-07-06T15:19:21.771Z,1.93
2017-07-06T15:21:50.114Z,1.80
2017-07-06T15:24:17.727Z,1.93
2017-07-06T15:26:45.305Z,1.80
2017-07-06T15:29:12.881Z,1.90
2017-07-06T15:31:41.859Z,2.00
2017-07-06T15:34:10.477Z,1.70
2017-07-06T15:36:38.506Z,1.90
2017-07-06T15:39:06.176Z,1.67
2017-07-06T15:41:33.755Z,1.70
2017-07-06T15:44:01.381Z,2.20
2017-07-06T15:46:29.031Z,1.83
2017-07-06T15:48:57.531Z,2.17
2017-07-06T15:51:26.344Z,1.90
2017-07-06T15:53:54.044Z,2.07
2017-07-06T15:56:23.534Z,1.97
2017-07-06T15:58:52.693Z,2.90
2017-07-06T16:01:21.215Z,3.10
2017-07-06T16:03:50.305Z,1.63
2017-07-06T16:06:19.426Z,2.20
2017-07-06T16:08:48.350Z,1.90
2017-07-06T16:11:17.471Z,2.30
2017-07-06T16:13:45.807Z,2.20
2017-07-06T16:16:13.547Z,2.40
2017-07-06T16:18:41.141Z,1.70
2017-07-06T16:21:09.489Z,2.20
2017-07-06T16:23:37.141Z,2.30
2017-07-06T16:26:05.471Z,1.73
2017-07-06T16:28:33.044Z,2.00
2017-07-06T16:31:01.440Z,2.27
2017-07-06T16:33:29.011Z,2.20
2017-07-06T16:35:56.598Z,2.27
2017-07-06T16:38:25.011Z,1.80
2017-07-06T16:40:52.592Z,2.40
2017-07-06T16:43:20.187Z,2.87
2017-07-06T16:45:47.823Z,2.90
2017-07-06T16:48:15.395Z,2.33
2017-07-06T16:50:43.008Z,2.90
2017-07-06T16:53:10.642Z,2.20
2017-07-06T16:55:38.981Z,2.00
2017-07-06T16:58:06.573Z,2.67
2017-07-06T17:00:34.191Z,3.03
2017-07-06T17:03:02.614Z,3.10
2017-07-06T17:05:30.397Z,3.20
2017-07-06T17:07:58.054Z,2.90
2017-07-06T17:10:26.419Z,2.63
2017-07-06T17:12:53.995Z,2.53
2017-07-06T17:15:21.615Z,3.10
2017-07-06T17:17:49.192Z,2.47
2017-07-06T17:20:16.796Z,2.63
2017-07-06T17:22:44.420Z,3.37
2017-07-06T17:25:12.759Z,2.83
2017-07-06T17:27:40.453Z,3.63
2017-07-06T17:30:08.081Z,3.00
2017-07-06T17:32:35.641Z,2.50
2017-07-06T17:35:03.198Z,2.10
2017-07-06T17:37:30.826Z,2.60
2017-07-06T17:39:59.427Z,2.70
2017-07-06T17:42:29.317Z,3.23
2017-07-06T17:44:56.939Z,2.83
2017-07-06T17:47:25.215Z,2.57
2017-07-06T17:49:52.927Z,2.80
2017-07-06T17:52:20.553Z,2.87
2017-07-06T17:54:48.133Z,2.40
2017-07-06T17:57:16.558Z,1.73
2017-07-06T17:59:44.203Z,1.93
2017-07-06T18:02:11.771Z,2.27
2017-07-06T18:04:39.366Z,1.47
2017-07-06T18:07:06.970Z,2.40
2017-07-06T18:09:34.581Z,2.40
2017-07-06T18:12:02.143Z,1.80
2017-07-06T18:14:30.528Z,1.30
2017-07-06T18:16:58.100Z,1.40
2017-07-06T18:19:25.680Z,1.30
2017-07-06T18:21:53.314Z,1.70
2017-07-06T18:24:20.900Z,2.08
2017-07-06T18:26:48.484Z,2.23
2017-07-06T18:29:16.124Z,2.08
2017-07-06T18:31:43.758Z,2.30
2017-07-06T18:34:11.347Z,2.35
2017-07-06T18:36:39.780Z,2.13
2017-07-06T18:39:07.584Z,1.60
2017-07-06T18:41:35.942Z,2.20
2017-07-06T18:44:04.340Z,2.00
2017-07-06T18:46:31.924Z,2.00
2017-07-06T18:48:59.567Z,2.27
2017-07-06T18:51:27.173Z,2.07
2017-07-06T18:53:54.767Z,1.70
2017-07-06T18:56:22.346Z,1.60
2017-07-06T18:58:49.978Z,1.60
2017-07-06T19:01:18.324Z,1.73
2017-07-06T19:03:45.895Z,1.40
2017-07-06T19:06:13.529Z,1.57
2017-07-06T19:08:41.121Z,2.30
2017-07-06T19:11:08.732Z,1.73
2017-07-06T19:13:36.356Z,1.53
2017-07-06T19:16:04.695Z,1.50
2017-07-06T19:18:32.276Z,1.87
2017-07-06T19:20:59.912Z,1.50
2017-07-06T19:23:28.250Z,1.50
2017-07-06T19:25:55.819Z,1.67
2017-07-06T19:28:24.238Z,1.67
2017-07-06T19:30:51.836Z,1.90
2017-07-06T19:33:19.448Z,2.20
2017-07-06T19:35:47.066Z,2.30
2017-07-06T19:38:14.640Z,2.10
2017-07-06T19:40:42.227Z,2.23
2017-07-06T19:43:09.882Z,2.30
2017-07-06T19:45:37.464Z,2.77
2017-07-06T19:48:05.047Z,2.50
2017-07-06T19:50:32.663Z,2.63
2017-07-06T19:53:00.266Z,3.00
2017-07-06T19:55:27.834Z,2.77
2017-07-06T19:57:56.265Z,2.70
2017-07-06T20:00:23.943Z,3.20
2017-07-06T20:02:51.532Z,3.10
2017-07-06T20:05:19.161Z,3.20
2017-07-06T20:07:46.736Z,3.40
2017-07-06T20:10:14.323Z,3.10
2017-07-06T20:12:41.939Z,3.47
2017-07-06T20:15:09.525Z,3.80
2017-07-06T20:17:37.119Z,2.93
2017-07-06T20:20:04.761Z,3.20
2017-07-06T20:22:32.326Z,3.20
2017-07-06T20:24:59.920Z,3.23
2017-07-06T20:27:28.313Z,2.70
2017-07-06T20:29:55.905Z,3.30
2017-07-06T20:32:23.482Z,4.27
2017-07-06T20:34:51.107Z,3.83
2017-07-06T20:37:19.456Z,4.07
2017-07-06T20:39:47.036Z,3.03
2017-07-06T20:42:14.653Z,3.47
2017-07-06T20:44:42.218Z,3.03
2017-07-06T20:47:09.790Z,3.70
2017-07-06T20:49:37.408Z,4.20
2017-07-06T20:52:05.834Z,3.83
2017-07-06T20:54:34.351Z,4.00
2017-07-06T20:57:02.775Z,4.57
2017-07-06T20:59:31.343Z,3.60
2017-07-06T21:01:59.761Z,3.93
2017-07-06T21:04:28.561Z,5.10
2017-07-06T21:06:57.038Z,4.10
2017-07-06T21:09:24.713Z,4.53
2017-07-06T21:11:52.322Z,4.50
2017-07-06T21:14:20.858Z,4.10
2017-07-06T21:16:48.528Z,3.70
2017-07-06T21:19:16.919Z,4.60
2017-07-06T21:21:45.562Z,4.97
2017-07-06T21:24:14.182Z,4.30
2017-07-06T21:26:42.750Z,3.83
2017-07-06T21:29:11.167Z,4.20
2017-07-06T21:31:38.845Z,4.07
2017-07-06T21:34:06.481Z,4.27
2017-07-06T21:36:34.055Z,3.70
2017-07-06T21:39:01.639Z,4.60
2017-07-06T21:41:29.257Z,4.03
2017-07-06T21:43:56.831Z,4.30
2017-07-06T21:46:24.416Z,4.30
2017-07-06T21:48:52.029Z,5.33
2017-07-06T21:51:19.625Z,6.50
2017-07-06T21:53:47.204Z,5.37
2017-07-06T21:56:14.833Z,6.50
2017-07-06T21:58:42.433Z,7.27
2017-07-06T22:01:10.015Z,6.90
2017-07-06T22:03:37.686Z,6.77
2017-07-06T22:06:05.256Z,6.20
2017-07-06T22:08:33.622Z,5.83
2017-07-06T22:11:01.268Z,6.47
2017-07-06T22:13:29.612Z,5.30
2017-07-06T22:15:57.187Z,5.13
2017-07-06T22:18:24.803Z,5.60
2017-07-06T22:20:52.405Z,5.80
2017-07-06T22:23:19.981Z,5.90
2017-07-06T22:25:47.634Z,5.90
2017-07-06T22:28:15.229Z,5.50
2017-07-06T22:30:42.816Z,4.70
2017-07-06T22:33:10.430Z,6.33
2017-07-06T22:35:38.007Z,5.07
2017-07-06T22:38:05.603Z,5.93
2017-07-06T22:40:33.284Z,5.37
2017-07-06T22:43:00.878Z,4.90
2017-07-06T22:45:28.449Z,4.20
2017-07-06T22:47:56.076Z,5.93
2017-07-06T22:50:24.654Z,4.97
2017-07-06T22:52:52.236Z,4.70
2017-07-06T22:55:19.878Z,4.73
2017-07-06T22:57:47.460Z,4.47
2017-07-06T23:00:15.044Z,5.30
2017-07-06T23:02:42.668Z,5.30
2017-07-06T23:05:10.293Z,4.90
2017-07-06T23:07:37.863Z,4.57
2017-07-06T23:10:05.484Z,5.10
2017-07-06T23:12:33.059Z,4.40
2017-07-06T23:15:00.838Z,4.93
2017-07-06T23:17:28.462Z,4.77
2017-07-06T23:19:56.036Z,4.73
2017-07-06T23:22:23.620Z,4.13
2017-07-06T23:24:51.261Z,5.07
2017-07-06T23:27:18.867Z,5.47
2017-07-06T23:29:46.444Z,5.77
2017-07-06T23:32:14.074Z,5.97
2017-07-06T23:34:42.420Z,4.93
2017-07-06T23:37:10.004Z,5.30
2017-07-06T23:39:37.638Z,4.47
2017-07-06T23:42:05.219Z,4.90
2017-07-06T23:44:32.800Z,4.40
2017-07-06T23:47:00.427Z,5.13
2017-07-06T23:49:28.011Z,5.70
2017-07-06T23:51:56.348Z,5.20
2017-07-06T23:54:23.985Z,4.60
2017-07-06T23:56:51.557Z,4.33
2017-07-06T23:59:19.916Z,4.13
